Time,TemperatureF,DewpointF,PressureIn,WindDirection,WindDirectionDegrees,WindSpeedMPH,WindSpeedGustMPH,Humidity,HourlyPrecipIn,Conditions,Clouds,dailyrainin,SoftwareType,DateUTC
2013-03-30 00:01:00,31.0,30.0,-100.00,WSW,251,7.0,13.0,98,0.00,,,-99.99,,2013-03-30 06:01:00,
2013-03-30 00:11:00,31.0,30.0,-100.00,WSW,256,5.0,10.0,99,0.00,,,-99.99,,2013-03-30 06:11:00,
2013-03-30 00:21:00,30.0,30.0,-100.00,ESE,116,5.0,15.0,100,0.00,,,-99.99,,2013-03-30 06:21:00,
2013-03-30 00:31:00,30.0,30.0,-100.00,ESE,106,7.0,11.0,100,0.00,,,-99.99,,2013-03-30 06:31:00,
2013-03-30 00:41:00,30.0,30.0,-100.00,ESE,107,6.0,9.0,100,0.00,,,-99.99,,2013-03-30 06:41:00,
2013-03-30 00:52:00,30.0,30.0,-100.00,East,96,2.0,6.0,100,0.00,,,-99.99,,2013-03-30 06:52:00,
2013-03-30 01:01:00,30.0,30.0,-100.00,ESE,103,3.0,6.0,100,0.00,,,-99.99,,2013-03-30 07:01:00,
2013-03-30 01:11:00,30.0,30.0,-100.00,ESE,112,3.0,6.0,100,0.00,,,-99.99,,2013-03-30 07:11:00,
2013-03-30 01:21:00,30.0,30.0,-100.00,East,83,4.0,6.0,100,0.00,,,-99.99,,2013-03-30 07:21:00,
2013-03-30 01:31:00,30.0,30.0,-100.00,NE,40,2.0,4.0,100,0.00,,,-99.99,,2013-03-30 07:31:00,
2013-03-30 01:41:00,30.0,30.0,-100.00,East,79,2.0,4.0,100,0.00,,,-99.99,,2013-03-30 07:41:00,
2013-03-30 01:52:00,30.0,30.0,-100.00,East,79,3.0,4.0,100,0.00,,,-99.99,,2013-03-30 07:52:00,
2013-03-30 02:01:00,30.0,30.0,-100.00,East,79,4.0,7.0,100,0.00,,,-99.99,,2013-03-30 08:01:00,
2013-03-30 02:11:00,29.0,29.0,-100.00,East,80,6.0,8.0,100,0.00,,,-99.99,,2013-03-30 08:11:00,
2013-03-30 02:21:00,29.0,29.0,-100.00,East,88,6.0,7.0,100,0.00,,,-99.99,,2013-03-30 08:21:00,
2013-03-30 02:31:00,29.0,29.0,-100.00,East,83,6.0,6.0,100,0.00,,,-99.99,,2013-03-30 08:31:00,
2013-03-30 02:42:00,29.0,29.0,-100.00,East,83,6.0,7.0,100,0.00,,,-99.99,,2013-03-30 08:42:00,
2013-03-30 03:01:00,29.0,29.0,-100.00,ENE,78,3.0,6.0,100,0.00,,,-99.99,,2013-03-30 09:01:00,
2013-03-30 03:11:00,29.0,29.0,-100.00,East,88,1.0,4.0,100,0.00,,,-99.99,,2013-03-30 09:11:00,
2013-03-30 03:22:00,29.0,29.0,-100.00,NE,45,0.0,0.0,100,0.00,,,-99.99,,2013-03-30 09:22:00,
2013-03-30 03:32:00,29.0,29.0,-100.00,ENE,62,0.0,0.0,100,0.00,,,-99.99,,2013-03-30 09:32:00,
2013-03-30 03:42:00,29.0,29.0,-100.00,ENE,76,0.0,0.0,100,0.00,,,-99.99,,2013-03-30 09:42:00,
2013-03-30 03:54:00,-999.0,-99.9,-100.00,ENE,71,0.0,0.0,-999,-99.99,,,-99.99,,2013-03-30 09:54:00,
2013-03-30 04:02:00,29.0,29.0,-100.00,ENE,71,0.0,0.0,100,0.00,,,-99.99,,2013-03-30 10:02:00,
2013-03-30 04:22:00,29.0,29.0,-100.00,East,92,0.0,0.0,100,0.00,,,-99.99,,2013-03-30 10:22:00,
2013-03-30 04:32:00,29.0,29.0,-100.00,East,95,0.0,0.0,100,0.00,,,-99.99,,2013-03-30 10:32:00,
2013-03-30 04:42:00,29.0,29.0,-100.00,East,97,0.0,0.0,100,0.00,,,-99.99,,2013-03-30 10:42:00,
2013-03-30 04:52:00,28.0,28.0,-100.00,East,96,0.0,0.0,100,0.00,,,-99.99,,2013-03-30 10:52:00,
2013-03-30 05:02:00,29.0,29.0,-100.00,East,90,0.0,0.0,100,0.00,,,-99.99,,2013-03-30 11:02:00,
2013-03-30 05:21:00,29.0,29.0,-100.00,North,1,0.0,0.0,100,0.00,,,-99.99,,2013-03-30 11:21:00,
2013-03-30 05:32:00,29.0,29.0,-100.00,East,79,0.0,0.0,100,0.00,,,-99.99,,2013-03-30 11:32:00,
2013-03-30 05:42:00,29.0,29.0,-100.00,NNE,21,0.0,0.0,100,0.00,,,-99.99,,2013-03-30 11:42:00,
2013-03-30 05:52:00,29.0,29.0,-100.00,NNE,16,0.0,0.0,100,0.00,,,-99.99,,2013-03-30 11:52:00,
2013-03-30 06:11:00,28.0,28.0,-100.00,East,100,0.0,0.0,100,0.00,,,-99.99,,2013-03-30 12:11:00,
2013-03-30 06:21:00,28.0,28.0,-100.00,East,89,9.0,11.0,100,0.00,,,-99.99,,2013-03-30 12:21:00,
2013-03-30 06:32:00,28.0,28.0,-100.00,East,90,9.0,11.0,100,0.00,,,-99.99,,2013-03-30 12:32:00,
2013-03-30 06:41:00,28.0,28.0,-100.00,East,86,7.0,9.0,100,0.03,,,-99.99,,2013-03-30 12:41:00,
2013-03-30 06:53:00,-999.0,-99.9,-100.00,ENE,76,4.0,7.0,-999,-99.99,,,-99.99,,2013-03-30 12:53:00,
2013-03-30 07:01:00,27.0,27.0,-100.00,West,271,9.0,15.0,100,-99.99,,,-99.99,,2013-03-30 13:01:00,
2013-03-30 07:11:00,27.0,27.0,-100.00,West,264,10.0,15.0,100,0.03,,,-99.99,,2013-03-30 13:11:00,
2013-03-30 07:21:00,27.0,27.0,-100.00,WSW,256,9.0,13.0,100,0.01,,,-99.99,,2013-03-30 13:21:00,
2013-03-30 07:31:00,27.0,27.0,-100.00,WSW,257,10.0,16.0,100,0.00,,,-99.99,,2013-03-30 13:31:00,
2013-03-30 07:42:00,27.0,27.0,-100.00,West,263,11.0,19.0,100,0.00,,,-99.99,,2013-03-30 13:42:00,
2013-03-30 07:52:00,26.0,26.0,-100.00,West,270,11.0,16.0,100,0.00,,,-99.99,,2013-03-30 13:52:00,
2013-03-30 08:03:00,-999.0,-99.9,-100.00,West,268,12.0,19.0,-999,-99.99,,,-99.99,,2013-03-30 14:03:00,
2013-03-30 08:11:00,27.0,27.0,-100.00,West,267,10.0,19.0,100,0.00,,,-99.99,,2013-03-30 14:11:00,
2013-03-30 08:21:00,27.0,27.0,-100.00,West,267,10.0,14.0,100,0.00,,,-99.99,,2013-03-30 14:21:00,
2013-03-30 08:32:00,27.0,27.0,-100.00,West,260,12.0,17.0,100,0.00,,,-99.99,,2013-03-30 14:32:00,
2013-03-30 08:41:00,27.0,27.0,-100.00,West,260,12.0,17.0,100,0.00,,,-99.99,,2013-03-30 14:41:00,
2013-03-30 09:01:00,28.0,28.0,-100.00,West,265,9.0,13.0,100,0.00,,,-99.99,,2013-03-30 15:01:00,
2013-03-30 09:11:00,28.0,28.0,-100.00,West,265,8.0,13.0,100,0.00,,,-99.99,,2013-03-30 15:11:00,
2013-03-30 09:21:00,27.0,27.0,-100.00,WSW,258,11.0,17.0,99,0.00,,,-99.99,,2013-03-30 15:21:00,
2013-03-30 09:34:00,-999.0,-99.9,-100.00,WSW,257,15.0,24.0,-999,-99.99,,,-99.99,,2013-03-30 15:34:00,
2013-03-30 09:42:00,27.0,25.0,-100.00,WSW,254,17.0,26.0,90,0.00,,,-99.99,,2013-03-30 15:42:00,
2013-03-30 09:52:00,27.0,24.0,-100.00,West,260,16.0,23.0,88,0.00,,,-99.99,,2013-03-30 15:52:00,
2013-03-30 10:02:00,28.0,25.0,-100.00,WSW,257,20.0,30.0,88,0.00,,,-99.99,,2013-03-30 16:02:00,
2013-03-30 10:12:00,28.0,23.0,-100.00,WSW,256,18.0,27.0,82,0.00,,,-99.99,,2013-03-30 16:12:00,
2013-03-30 10:22:00,29.0,24.0,-100.00,West,260,18.0,30.0,82,0.00,,,-99.99,,2013-03-30 16:22:00,
2013-03-30 10:32:00,29.0,24.0,-100.00,West,261,19.0,26.0,81,0.00,,,-99.99,,2013-03-30 16:32:00,
2013-03-30 10:42:00,29.0,23.0,-100.00,West,260,21.0,32.0,77,0.00,,,-99.99,,2013-03-30 16:42:00,
2013-03-30 10:52:00,30.0,23.0,-100.00,WSW,254,23.0,32.0,75,0.00,,,-99.99,,2013-03-30 16:52:00,
2013-03-30 11:01:00,30.0,22.0,-100.00,WSW,256,21.0,30.0,73,0.00,,,-99.99,,2013-03-30 17:01:00,
2013-03-30 11:12:00,31.0,23.0,-100.00,West,260,18.0,30.0,71,0.00,,,-99.99,,2013-03-30 17:12:00,
2013-03-30 11:22:00,32.0,22.0,-100.00,West,261,17.0,27.0,67,0.00,,,-99.99,,2013-03-30 17:22:00,
2013-03-30 11:31:00,33.0,23.0,-100.00,West,265,16.0,27.0,69,0.00,,,-99.99,,2013-03-30 17:31:00,
2013-03-30 11:42:00,32.0,21.0,-100.00,WSW,258,18.0,27.0,66,0.00,,,-99.99,,2013-03-30 17:42:00,
2013-03-30 11:52:00,34.0,22.0,-100.00,West,261,16.0,27.0,60,0.00,,,-99.99,,2013-03-30 17:52:00,
2013-03-30 12:01:00,33.0,22.0,-100.00,West,263,16.0,24.0,63,0.00,,,-99.99,,2013-03-30 18:01:00,
2013-03-30 12:11:00,35.0,24.0,-100.00,West,264,12.0,26.0,64,0.00,,,-99.99,,2013-03-30 18:11:00,
2013-03-30 12:21:00,34.0,22.0,-100.00,West,267,14.0,24.0,62,0.00,,,-99.99,,2013-03-30 18:21:00,
2013-03-30 12:33:00,-999.0,-99.9,-100.00,West,264,14.0,23.0,-999,-99.99,,,-99.99,,2013-03-30 18:33:00,
2013-03-30 12:42:00,36.0,20.0,-100.00,West,267,12.0,22.0,51,0.00,,,-99.99,,2013-03-30 18:42:00,
2013-03-30 12:52:00,37.0,20.0,-100.00,West,265,13.0,21.0,50,0.00,,,-99.99,,2013-03-30 18:52:00,
2013-03-30 13:01:00,37.0,19.0,-100.00,West,260,16.0,27.0,48,0.00,,,-99.99,,2013-03-30 19:01:00,
2013-03-30 13:11:00,37.0,20.0,-100.00,West,268,14.0,20.0,49,0.00,,,-99.99,,2013-03-30 19:11:00,
2013-03-30 13:21:00,38.0,19.0,-100.00,West,264,15.0,24.0,46,0.00,,,-99.99,,2013-03-30 19:21:00,
2013-03-30 13:31:00,38.0,17.0,-100.00,WSW,241,14.0,22.0,41,0.00,,,-99.99,,2013-03-30 19:31:00,
2013-03-30 13:41:00,38.0,17.0,-100.00,WSW,247,14.0,24.0,40,0.00,,,-99.99,,2013-03-30 19:41:00,
2013-03-30 13:52:00,39.0,17.0,-100.00,West,265,14.0,24.0,40,0.00,,,-99.99,,2013-03-30 19:52:00,
2013-03-30 14:02:00,39.0,18.0,-100.00,WSW,250,16.0,27.0,44,0.00,,,-99.99,,2013-03-30 20:02:00,
2013-03-30 14:11:00,37.0,17.0,-100.00,WSW,250,14.0,22.0,43,0.00,,,-99.99,,2013-03-30 20:11:00,
2013-03-30 14:21:00,39.0,18.0,-100.00,West,267,12.0,21.0,42,0.00,,,-99.99,,2013-03-30 20:21:00,
2013-03-30 14:32:00,38.0,19.0,-100.00,West,260,12.0,21.0,46,0.00,,,-99.99,,2013-03-30 20:32:00,
2013-03-30 14:42:00,40.0,18.0,-100.00,West,264,11.0,18.0,41,0.00,,,-99.99,,2013-03-30 20:42:00,
2013-03-30 14:52:00,40.0,19.0,-100.00,West,274,12.0,19.0,42,0.00,,,-99.99,,2013-03-30 20:52:00,
2013-03-30 15:01:00,38.0,15.0,-100.00,West,270,11.0,21.0,38,0.00,,,-99.99,,2013-03-30 21:01:00,
2013-03-30 15:11:00,39.0,17.0,-100.00,WSW,258,12.0,21.0,40,0.00,,,-99.99,,2013-03-30 21:11:00,
2013-03-30 15:21:00,41.0,17.0,-100.00,West,270,13.0,23.0,36,0.00,,,-99.99,,2013-03-30 21:21:00,
2013-03-30 15:32:00,41.0,15.0,-100.00,West,263,12.0,20.0,34,0.00,,,-99.99,,2013-03-30 21:32:00,
2013-03-30 15:42:00,41.0,15.0,-100.00,WSW,244,15.0,23.0,35,0.00,,,-99.99,,2013-03-30 21:42:00,
2013-03-30 15:52:00,41.0,16.0,-100.00,West,261,17.0,26.0,36,0.00,,,-99.99,,2013-03-30 21:52:00,
2013-03-30 16:02:00,41.0,16.0,-100.00,WSW,257,13.0,22.0,36,0.00,,,-99.99,,2013-03-30 22:02:00,
2013-03-30 16:12:00,41.0,16.0,-100.00,WSW,257,14.0,23.0,37,0.00,,,-99.99,,2013-03-30 22:12:00,
2013-03-30 16:23:00,41.0,14.0,-100.00,West,270,14.0,28.0,32,0.00,,,-99.99,,2013-03-30 22:23:00,
2013-03-30 16:32:00,41.0,14.0,-100.00,WSW,254,16.0,26.0,34,0.00,,,-99.99,,2013-03-30 22:32:00,
2013-03-30 16:42:00,41.0,14.0,-100.00,WSW,257,16.0,23.0,34,0.00,,,-99.99,,2013-03-30 22:42:00,
2013-03-30 16:52:00,41.0,15.0,-100.00,West,265,11.0,21.0,33,0.00,,,-99.99,,2013-03-30 22:52:00,
2013-03-30 17:02:00,42.0,15.0,-100.00,WSW,253,12.0,21.0,33,0.00,,,-99.99,,2013-03-30 23:02:00,
2013-03-30 17:12:00,42.0,14.0,-100.00,West,264,12.0,23.0,32,0.00,,,-99.99,,2013-03-30 23:12:00,
2013-03-30 17:22:00,42.0,14.0,-100.00,West,260,14.0,21.0,32,0.00,,,-99.99,,2013-03-30 23:22:00,
2013-03-30 17:33:00,-999.0,-99.9,-100.00,West,267,12.0,21.0,-999,-99.99,,,-99.99,,2013-03-30 23:33:00,
2013-03-30 17:41:00,41.0,14.0,-100.00,West,268,13.0,24.0,33,0.00,,,-99.99,,2013-03-30 23:41:00,
2013-03-30 17:52:00,42.0,15.0,-100.00,West,270,11.0,18.0,33,0.00,,,-99.99,,2013-03-30 23:52:00,
2013-03-30 18:01:00,42.0,15.0,-100.00,West,271,12.0,19.0,33,0.00,,,-99.99,,2013-03-31 00:01:00,
2013-03-30 18:11:00,42.0,14.0,-100.00,West,270,11.0,19.0,31,0.00,,,-99.99,,2013-03-31 00:11:00,
2013-03-30 18:22:00,41.0,14.0,-100.00,WSW,256,12.0,19.0,32,0.00,,,-99.99,,2013-03-31 00:22:00,
2013-03-30 18:31:00,41.0,13.0,-100.00,WSW,257,12.0,19.0,32,0.00,,,-99.99,,2013-03-31 00:31:00,
2013-03-30 18:41:00,40.0,13.0,-100.00,West,260,12.0,20.0,33,0.00,,,-99.99,,2013-03-31 00:41:00,
2013-03-30 18:52:00,40.0,13.0,-100.00,WSW,253,12.0,19.0,33,0.00,,,-99.99,,2013-03-31 00:52:00,
2013-03-30 19:01:00,40.0,13.0,-100.00,WSW,253,12.0,17.0,32,0.00,,,-99.99,,2013-03-31 01:01:00,
2013-03-30 19:11:00,40.0,13.0,-100.00,WSW,253,12.0,17.0,33,0.00,,,-99.99,,2013-03-31 01:11:00,
2013-03-30 19:21:00,39.0,13.0,-100.00,WSW,257,10.0,16.0,34,0.00,,,-99.99,,2013-03-31 01:21:00,
2013-03-30 19:31:00,39.0,14.0,-100.00,West,270,8.0,14.0,36,0.00,,,-99.99,,2013-03-31 01:31:00,
2013-03-30 19:42:00,38.0,14.0,-100.00,West,265,9.0,15.0,37,0.00,,,-99.99,,2013-03-31 01:42:00,
2013-03-30 19:52:00,37.0,15.0,-100.00,West,270,6.0,12.0,40,0.00,,,-99.99,,2013-03-31 01:52:00,
2013-03-30 20:01:00,35.0,15.0,-100.00,West,268,4.0,7.0,43,0.00,,,-99.99,,2013-03-31 02:01:00,
2013-03-30 20:11:00,35.0,15.0,-100.00,West,268,2.0,6.0,43,0.00,,,-99.99,,2013-03-31 02:11:00,
2013-03-30 20:21:00,34.0,15.0,-100.00,West,267,2.0,7.0,45,0.00,,,-99.99,,2013-03-31 02:21:00,
2013-03-30 20:31:00,34.0,15.0,-100.00,West,281,4.0,9.0,46,0.00,,,-99.99,,2013-03-31 02:31:00,
2013-03-30 20:42:00,34.0,16.0,-100.00,West,281,4.0,9.0,47,0.00,,,-99.99,,2013-03-31 02:42:00,
2013-03-30 20:51:00,33.0,15.0,-100.00,West,275,2.0,6.0,47,0.00,,,-99.99,,2013-03-31 02:51:00,
2013-03-30 21:01:00,33.0,15.0,-100.00,WNW,284,2.0,8.0,48,0.00,,,-99.99,,2013-03-31 03:01:00,
2013-03-30 21:11:00,33.0,15.0,-100.00,West,280,2.0,8.0,48,0.00,,,-99.99,,2013-03-31 03:11:00,
2013-03-30 21:21:00,33.0,15.0,-100.00,West,271,4.0,9.0,47,0.00,,,-99.99,,2013-03-31 03:21:00,
2013-03-30 21:32:00,33.0,15.0,-100.00,West,267,5.0,9.0,47,0.00,,,-99.99,,2013-03-31 03:32:00,
2013-03-30 21:42:00,33.0,15.0,-100.00,West,263,6.0,9.0,48,0.00,,,-99.99,,2013-03-31 03:42:00,
2013-03-30 21:53:00,32.0,15.0,-100.00,West,267,6.0,9.0,49,0.00,,,-99.99,,2013-03-31 03:53:00,
2013-03-30 22:02:00,32.0,-99.9,-100.00,West,268,6.0,12.0,50,0.00,,,-99.99,,2013-03-31 04:02:00,
2013-03-30 22:12:00,33.0,16.0,-100.00,West,267,7.0,12.0,49,0.00,,,-99.99,,2013-03-31 04:12:00,
2013-03-30 22:22:00,33.0,15.0,-100.00,West,264,10.0,16.0,49,0.00,,,-99.99,,2013-03-31 04:22:00,
2013-03-30 22:32:00,32.0,16.0,-100.00,West,261,11.0,14.0,50,0.00,,,-99.99,,2013-03-31 04:32:00,
2013-03-30 22:42:00,32.0,16.0,-100.00,West,261,12.0,18.0,50,0.00,,,-99.99,,2013-03-31 04:42:00,
2013-03-30 22:52:00,32.0,15.0,-100.00,West,264,11.0,17.0,50,0.00,,,-99.99,,2013-03-31 04:52:00,
2013-03-30 23:02:00,32.0,15.0,-100.00,West,263,12.0,17.0,49,0.00,,,-99.99,,2013-03-31 05:02:00,
2013-03-30 23:13:00,-999.0,-99.9,-100.00,West,264,12.0,18.0,-999,-99.99,,,-99.99,,2013-03-31 05:13:00,
2013-03-30 23:22:00,33.0,16.0,-100.00,WSW,258,16.0,23.0,47,0.00,,,-99.99,,2013-03-31 05:22:00,
2013-03-30 23:32:00,34.0,15.0,-100.00,WSW,258,17.0,24.0,46,0.00,,,-99.99,,2013-03-31 05:32:00,
2013-03-30 23:41:00,33.0,15.0,-100.00,WSW,256,17.0,22.0,47,0.00,,,-99.99,,2013-03-31 05:41:00,
2013-03-30 23:52:00,32.0,16.0,-100.00,West,260,17.0,22.0,49,0.00,,,-99.99,,2013-03-31 05:52:00,